Time;durP1;ratioP1;P1;durP2;ratioP2;P2;SDS_P1;SDS_P2;PMS_P1;PMS_P2;Temp;Humidity;BMP_temperature;BMP_pressure;BME280_temperature;BME280_humidity;BME280_pressure;Samples;Min_cycle;Max_cycle;Signal;HPM_P1;HPM_P2
2022/09/30 00:01:38;;;;;;;6.97;3.70;;;19.10;85.90;;;;;;4953040;28;20272;-77
2022/09/30 00:04:12;;;;;;;11.93;4.53;;;19.10;85.80;;;;;;4946226;28;20542;-77
2022/09/30 00:06:41;;;;;;;9.20;4.30;;;19.10;86.00;;;;;;4945570;28;20284;-77
2022/09/30 00:09:11;;;;;;;11.90;4.23;;;19.10;86.00;;;;;;4949911;28;20670;-77
2022/09/30 00:11:41;;;;;;;8.13;3.77;;;19.10;86.10;;;;;;4963146;28;20198;-77
2022/09/30 00:14:14;;;;;;;11.00;4.57;;;19.00;86.10;;;;;;4948307;28;20198;-77
2022/09/30 00:16:43;;;;;;;10.47;3.67;;;19.00;86.10;;;;;;4948518;28;20226;-77
2022/09/30 00:19:14;;;;;;;9.27;4.40;;;19.00;86.10;;;;;;4948840;28;20232;-78
2022/09/30 00:21:43;;;;;;;9.70;4.47;;;19.00;86.10;;;;;;4958259;28;20190;-76
2022/09/30 00:24:11;;;;;;;9.57;4.77;;;18.90;86.40;;;;;;4955927;28;20198;-77
2022/09/30 00:26:40;;;;;;;13.97;4.40;;;18.90;86.50;;;;;;4955766;28;20230;-77
2022/09/30 00:29:09;;;;;;;8.27;4.40;;;18.90;86.90;;;;;;4959969;28;20742;-77
2022/09/30 00:31:38;;;;;;;11.03;4.73;;;18.90;87.20;;;;;;4951161;28;20198;-77
2022/09/30 00:34:07;;;;;;;8.10;4.67;;;18.80;87.40;;;;;;4954626;28;20201;-77
2022/09/30 00:36:43;;;;;;;7.80;4.30;;;18.80;87.60;;;;;;4955016;28;20210;-77
2022/09/30 00:39:14;;;;;;;10.30;4.47;;;18.70;87.50;;;;;;4954164;28;20244;-78
2022/09/30 00:41:43;;;;;;;13.23;5.60;;;18.70;87.40;;;;;;4956835;28;20198;-77
2022/09/30 00:44:49;;;;;;;9.53;4.53;;;18.70;87.70;;;;;;4958354;28;20643;-77
2022/09/30 00:47:35;;;;;;;8.73;4.80;;;18.70;88.30;;;;;;4948290;28;20206;-77
2022/09/30 00:50:13;;;;;;;9.83;5.03;;;18.60;88.00;;;;;;4960462;28;20198;-76
2022/09/30 00:52:46;;;;;;;11.33;5.10;;;18.60;88.40;;;;;;4950293;28;20265;-77
2022/09/30 00:55:27;;;;;;;8.87;4.90;;;18.60;89.10;;;;;;4956573;28;20205;-77
2022/09/30 00:57:56;;;;;;;10.10;5.07;;;18.60;89.00;;;;;;4954860;28;20190;-77
2022/09/30 01:00:25;;;;;;;10.63;4.57;;;18.60;88.80;;;;;;4952316;28;20199;-76
2022/09/30 01:02:54;;;;;;;9.47;5.50;;;18.60;88.70;;;;;;4962804;28;20237;-77
2022/09/30 01:05:25;;;;;;;10.57;4.93;;;18.50;88.80;;;;;;4952936;28;20229;-78
2022/09/30 01:07:58;;;;;;;10.90;4.43;;;18.60;88.70;;;;;;4949239;28;20206;-77
2022/09/30 01:10:26;;;;;;;8.93;4.87;;;18.50;88.60;;;;;;4954280;28;20226;-77
2022/09/30 01:12:55;;;;;;;12.03;5.53;;;18.50;88.70;;;;;;4958162;28;20252;-77
2022/09/30 01:15:34;;;;;;;12.07;5.10;;;18.50;89.00;;;;;;4951868;28;20305;-77
2022/09/30 01:18:13;;;;;;;9.80;5.30;;;18.50;89.30;;;;;;4955322;28;20297;-77
2022/09/30 01:21:09;;;;;;;12.53;5.37;;;18.50;89.10;;;;;;4953025;29;20201;-77
2022/09/30 01:23:55;;;;;;;11.60;5.50;;;18.40;89.30;;;;;;4928661;28;20621;-77
2022/09/30 01:26:53;;;;;;;11.43;5.47;;;18.40;89.40;;;;;;4957080;28;20233;-77
2022/09/30 01:30:09;;;;;;;10.23;5.03;;;18.40;89.40;;;;;;4948246;28;20187;-77
2022/09/30 01:33:12;;;;;;;11.90;5.53;;;18.40;89.30;;;;;;4954882;28;20543;-77
2022/09/30 01:35:53;;;;;;;9.50;4.90;;;18.40;89.40;;;;;;4941458;28;20218;-77
2022/09/30 01:38:28;;;;;;;9.73;4.50;;;18.40;89.40;;;;;;4949792;28;20195;-76
2022/09/30 01:41:05;;;;;;;10.43;4.87;;;18.40;89.60;;;;;;4952495;28;20631;-77
2022/09/30 01:43:43;;;;;;;8.10;5.07;;;18.30;89.70;;;;;;4956639;28;20198;-77
2022/09/30 01:46:21;;;;;;;9.37;4.73;;;18.30;90.00;;;;;;4958951;28;20209;-78
2022/09/30 01:48:58;;;;;;;14.17;4.50;;;18.30;90.20;;;;;;4957140;28;20216;-77
2022/09/30 01:51:35;;;;;;;9.37;4.77;;;18.20;90.10;;;;;;4951995;28;20206;-77
2022/09/30 01:54:09;;;;;;;14.10;4.53;;;18.20;90.00;;;;;;4953643;28;20241;-77
2022/09/30 01:56:44;;;;;;;7.30;4.23;;;18.20;90.10;;;;;;4951295;28;20611;-77
2022/09/30 01:59:19;;;;;;;6.83;3.93;;;18.20;90.50;;;;;;4958944;28;20263;-78
2022/09/30 02:01:53;;;;;;;6.47;4.10;;;18.20;90.00;;;;;;4954348;28;20202;-77
2022/09/30 02:04:28;;;;;;;7.87;4.10;;;18.20;90.00;;;;;;4959591;28;20202;-77
2022/09/30 02:07:00;;;;;;;8.97;4.23;;;18.20;90.00;;;;;;4953530;28;20544;-77
2022/09/30 02:09:34;;;;;;;7.60;4.37;;;18.20;90.10;;;;;;4951028;28;20206;-77
2022/09/30 02:12:06;;;;;;;9.40;3.87;;;18.20;90.10;;;;;;4949381;28;20191;-77
2022/09/30 02:14:40;;;;;;;7.00;4.10;;;18.20;90.10;;;;;;4951619;28;20710;-77
2022/09/30 02:17:15;;;;;;;10.33;4.40;;;18.20;90.00;;;;;;4946982;28;20258;-77
2022/09/30 02:19:47;;;;;;;7.27;3.90;;;18.20;90.00;;;;;;4955635;28;20623;-78
2022/09/30 02:22:20;;;;;;;11.90;4.07;;;18.20;90.00;;;;;;4950153;28;20190;-78
2022/09/30 02:24:54;;;;;;;8.33;4.33;;;18.10;90.00;;;;;;4952005;28;20194;-77
2022/09/30 02:27:27;;;;;;;6.30;3.83;;;18.20;90.00;;;;;;4949809;28;20195;-78
2022/09/30 02:29:58;;;;;;;12.93;3.90;;;18.20;90.00;;;;;;4951614;28;20195;-77
2022/09/30 02:32:30;;;;;;;6.93;3.83;;;18.10;90.00;;;;;;4953675;28;20668;-77
2022/09/30 02:35:04;;;;;;;7.23;3.73;;;18.10;89.90;;;;;;4948736;28;20804;-77
2022/09/30 02:37:35;;;;;;;10.63;4.40;;;18.10;90.00;;;;;;4950238;28;20187;-77
2022/09/30 02:40:09;;;;;;;9.80;3.90;;;18.10;89.90;;;;;;4951172;28;20218;-78
2022/09/30 02:42:40;;;;;;;6.03;3.53;;;18.10;90.00;;;;;;4949005;28;20222;-78
2022/09/30 02:45:11;;;;;;;9.97;4.63;;;18.10;90.10;;;;;;4953357;28;20198;-77
2022/09/30 02:47:55;;;;;;;11.67;4.33;;;18.00;90.00;;;;;;4950232;28;20290;-77
2022/09/30 02:50:32;;;;;;;10.37;4.23;;;18.00;90.00;;;;;;4954057;28;20664;-77
2022/09/30 02:53:15;;;;;;;8.13;4.07;;;18.00;90.00;;;;;;4951559;28;20603;-77
2022/09/30 02:56:01;;;;;;;7.67;4.07;;;18.00;90.00;;;;;;4952566;28;20198;-77
2022/09/30 02:58:30;;;;;;;7.30;3.70;;;18.00;90.00;;;;;;4949205;28;20222;-77
2022/09/30 03:00:58;;;;;;;9.97;3.97;;;18.00;90.00;;;;;;4951521;28;20222;-77
2022/09/30 03:03:29;;;;;;;9.57;3.90;;;18.00;90.00;;;;;;4951407;28;20230;-77
2022/09/30 03:05:59;;;;;;;6.43;3.77;;;18.00;90.00;;;;;;4955429;28;20249;-77
2022/09/30 03:08:27;;;;;;;9.03;3.83;;;18.00;90.00;;;;;;4954581;28;20207;-77
2022/09/30 03:10:56;;;;;;;9.07;3.97;;;18.00;90.00;;;;;;4948215;28;20615;-77
2022/09/30 03:13:58;;;;;;;9.95;3.63;;;18.00;90.00;;;;;;4951304;28;20492;-77
2022/09/30 03:16:40;;;;;;;13.27;3.40;;;18.00;90.10;;;;;;4921454;28;20261;-77
2022/09/30 03:19:33;;;;;;;7.67;3.77;;;17.90;90.00;;;;;;4950460;28;20244;-77
2022/09/30 03:22:19;;;;;;;9.43;3.63;;;17.90;90.00;;;;;;4947480;28;20273;-77
2022/09/30 03:25:15;;;;;;;8.73;4.00;;;17.90;90.00;;;;;;4947419;28;20543;-77
2022/09/30 03:27:52;;;;;;;12.97;4.13;;;17.90;90.00;;;;;;4953383;28;20199;-77
2022/09/30 03:30:25;;;;;;;15.80;4.03;;;17.90;90.10;;;;;;4952088;28;20880;-77
2022/09/30 03:33:06;;;;;;;8.00;3.80;;;17.90;90.00;;;;;;4947366;28;20190;-77
2022/09/30 03:35:45;;;;;;;10.10;3.63;;;17.90;90.10;;;;;;4954477;28;20220;-77
2022/09/30 03:38:25;;;;;;;12.17;4.27;;;17.90;90.10;;;;;;4955655;28;20256;-77
2022/09/30 03:41:00;;;;;;;8.23;4.10;;;17.80;90.10;;;;;;4948816;28;20690;-77
2022/09/30 03:43:33;;;;;;;16.57;4.13;;;17.80;90.10;;;;;;4953800;28;20217;-77
2022/09/30 03:46:07;;;;;;;6.17;3.37;;;17.80;90.10;;;;;;4947474;28;20292;-77
2022/09/30 03:48:38;;;;;;;10.33;3.73;;;17.80;90.00;;;;;;4947150;28;20257;-77
2022/09/30 03:51:08;;;;;;;10.57;3.43;;;17.80;90.00;;;;;;4941975;28;20711;-77
2022/09/30 03:53:41;;;;;;;8.00;3.97;;;17.80;90.00;;;;;;4948380;28;20227;-77
2022/09/30 03:56:09;;;;;;;7.80;3.53;;;17.80;90.10;;;;;;4950323;28;20298;-78
2022/09/30 03:58:41;;;;;;;12.57;3.90;;;17.80;90.10;;;;;;4946206;28;20231;-78
2022/09/30 04:01:17;;;;;;;10.80;4.63;;;17.80;90.10;;;;;;4940804;28;20241;-77
2022/09/30 04:03:50;;;;;;;10.07;4.00;;;17.80;90.10;;;;;;4947802;28;20273;-77
2022/09/30 04:06:20;;;;;;;9.03;3.90;;;17.70;90.00;;;;;;4944024;28;20198;-77
2022/09/30 04:08:52;;;;;;;8.73;4.00;;;17.80;90.00;;;;;;4956168;28;20674;-77
2022/09/30 04:11:21;;;;;;;13.33;4.00;;;17.80;90.10;;;;;;4957161;28;20710;-77
2022/09/30 04:13:49;;;;;;;8.13;4.27;;;17.80;90.00;;;;;;4947334;28;20191;-77
2022/09/30 04:16:17;;;;;;;9.60;4.60;;;17.70;90.00;;;;;;4943717;28;20254;-78
2022/09/30 04:18:46;;;;;;;8.57;4.27;;;17.80;90.10;;;;;;4950077;28;20194;-78
2022/09/30 04:21:15;;;;;;;10.47;3.97;;;17.80;90.10;;;;;;4944897;28;20221;-78
2022/09/30 04:23:44;;;;;;;11.93;4.17;;;17.80;90.10;;;;;;4942321;28;20241;-77
2022/09/30 04:26:15;;;;;;;10.43;3.93;;;17.80;90.10;;;;;;4948628;28;20272;-77
2022/09/30 04:28:44;;;;;;;7.60;3.90;;;17.80;90.10;;;;;;4943011;28;20190;-78
2022/09/30 04:31:15;;;;;;;11.73;3.67;;;17.80;90.00;;;;;;4951407;28;20202;-77
2022/09/30 04:33:44;;;;;;;12.30;4.40;;;17.80;90.10;;;;;;4956151;28;20541;-77
2022/09/30 04:36:13;;;;;;;7.67;3.80;;;17.80;90.10;;;;;;4953551;28;20218;-77
2022/09/30 04:38:41;;;;;;;9.47;3.73;;;17.80;90.10;;;;;;4954201;28;20659;-77
2022/09/30 04:41:15;;;;;;;14.47;4.20;;;17.80;90.10;;;;;;4950777;28;20309;-78
2022/09/30 04:43:45;;;;;;;7.50;3.93;;;17.80;90.10;;;;;;4952808;28;20207;-77
2022/09/30 04:46:14;;;;;;;9.87;3.80;;;17.90;90.10;;;;;;4949183;28;20230;-78
2022/09/30 04:48:44;;;;;;;9.77;3.90;;;17.90;90.10;;;;;;4951733;28;20326;-78
2022/09/30 04:51:13;;;;;;;10.87;3.87;;;17.90;90.20;;;;;;4949317;28;20290;-78
2022/09/30 04:53:42;;;;;;;9.10;4.00;;;17.90;90.20;;;;;;4953429;28;20194;-78
2022/09/30 04:56:10;;;;;;;11.20;4.27;;;17.90;90.20;;;;;;4955745;28;20695;-79
2022/09/30 04:58:42;;;;;;;8.90;4.03;;;17.90;90.20;;;;;;4950414;28;20728;-78
2022/09/30 05:01:13;;;;;;;11.07;4.77;;;17.90;90.30;;;;;;4947299;28;20207;-78
2022/09/30 05:03:42;;;;;;;17.57;5.33;;;17.90;90.30;;;;;;4956366;28;20285;-78
2022/09/30 05:06:11;;;;;;;10.60;4.83;;;18.00;90.40;;;;;;4949793;28;20241;-79
2022/09/30 05:08:41;;;;;;;9.00;4.20;;;18.00;90.40;;;;;;4947870;28;20682;-78
2022/09/30 05:11:16;;;;;;;8.27;4.33;;;18.10;90.40;;;;;;4946905;28;20643;-78
2022/09/30 05:13:47;;;;;;;9.10;3.90;;;18.10;90.50;;;;;;4956281;28;20257;-78
2022/09/30 05:16:16;;;;;;;12.50;4.50;;;18.20;90.50;;;;;;4960393;28;20230;-78
2022/09/30 05:18:45;;;;;;;9.37;3.97;;;18.20;90.50;;;;;;4956728;28;20203;-78
2022/09/30 05:21:15;;;;;;;13.73;3.80;;;18.30;90.50;;;;;;4952378;28;20237;-78
2022/09/30 05:23:44;;;;;;;9.10;3.77;;;18.40;90.70;;;;;;4948336;28;20245;-77
2022/09/30 05:26:13;;;;;;;12.07;3.90;;;18.40;90.50;;;;;;4956139;28;20552;-78
2022/09/30 05:28:42;;;;;;;8.83;3.87;;;18.50;90.60;;;;;;4952328;28;20517;-78
2022/09/30 05:31:12;;;;;;;8.77;3.50;;;18.60;90.50;;;;;;4955277;28;20202;-78
2022/09/30 05:33:41;;;;;;;12.23;4.70;;;18.70;90.50;;;;;;4953485;28;20924;-78
2022/09/30 05:36:13;;;;;;;10.53;4.23;;;18.70;90.70;;;;;;4959909;28;20249;-78
2022/09/30 05:38:41;;;;;;;7.93;4.43;;;18.80;90.70;;;;;;4953824;28;20574;-79
2022/09/30 05:41:11;;;;;;;12.67;4.40;;;18.90;90.70;;;;;;4952676;28;20661;-78
2022/09/30 05:43:41;;;;;;;12.27;4.60;;;18.90;90.60;;;;;;4959984;28;20639;-78
2022/09/30 05:46:11;;;;;;;8.63;4.60;;;19.00;90.70;;;;;;4954263;28;20714;-78
2022/09/30 05:48:41;;;;;;;10.77;4.80;;;19.10;90.60;;;;;;4954432;28;20206;-79
2022/09/30 05:51:19;;;;;;;11.20;4.40;;;19.20;90.50;;;;;;4952198;28;20333;-78
2022/09/30 05:53:48;;;;;;;8.50;3.37;;;19.20;90.40;;;;;;4958351;28;20193;-78
2022/09/30 05:56:16;;;;;;;10.47;4.00;;;19.30;90.40;;;;;;4957704;28;20646;-78
2022/09/30 05:58:46;;;;;;;9.13;3.27;;;19.40;90.40;;;;;;4959837;28;20190;-78
2022/09/30 06:01:16;;;;;;;7.53;3.13;;;19.40;90.30;;;;;;4960373;28;20222;-78
2022/09/30 06:03:45;;;;;;;7.70;3.33;;;19.40;90.20;;;;;;4954886;28;20236;-78
2022/09/30 06:06:14;;;;;;;7.80;3.90;;;19.50;90.10;;;;;;4957158;28;20468;-79
2022/09/30 06:08:43;;;;;;;5.70;3.37;;;19.60;90.00;;;;;;4956313;28;20199;-78
2022/09/30 06:11:13;;;;;;;8.40;2.80;;;19.70;89.90;;;;;;4955302;28;20722;-78
2022/09/30 06:13:42;;;;;;;12.47;3.63;;;19.80;89.80;;;;;;4947282;28;20230;-78
2022/09/30 06:16:12;;;;;;;8.17;3.57;;;19.80;89.50;;;;;;4960477;28;20287;-79
2022/09/30 06:18:42;;;;;;;14.83;4.27;;;19.90;89.40;;;;;;4946208;29;20205;-79
2022/09/30 06:21:12;;;;;;;10.73;4.03;;;19.90;89.30;;;;;;4951848;28;20314;-79
2022/09/30 06:23:41;;;;;;;8.13;3.40;;;19.90;89.10;;;;;;4954354;28;20194;-79
2022/09/30 06:26:12;;;;;;;9.03;3.00;;;19.90;89.10;;;;;;4945541;28;20255;-80
2022/09/30 06:28:41;;;;;;;8.63;2.70;;;20.00;89.10;;;;;;4957067;28;20226;-78
2022/09/30 06:31:10;;;;;;;12.33;3.03;;;20.10;89.10;;;;;;4952883;28;20202;-79
2022/09/30 06:33:38;;;;;;;11.67;3.03;;;20.10;88.90;;;;;;4957080;28;20767;-79
2022/09/30 06:36:08;;;;;;;9.77;3.47;;;20.20;88.80;;;;;;4951120;28;20869;-79
2022/09/30 06:38:38;;;;;;;6.90;2.80;;;20.20;88.70;;;;;;4953120;28;20217;-78
2022/09/30 06:41:10;;;;;;;10.47;3.43;;;20.30;88.60;;;;;;4954005;28;20261;-81
2022/09/30 06:43:43;;;;;;;5.97;2.83;;;20.30;88.50;;;;;;4949807;28;20199;-80
2022/09/30 06:46:22;;;;;;;6.53;3.23;;;20.40;88.30;;;;;;4952268;28;20198;-78
2022/09/30 06:48:58;;;;;;;10.30;3.70;;;20.40;88.00;;;;;;4952693;28;20218;-79
2022/09/30 06:51:50;;;;;;;4.97;3.13;;;20.50;88.00;;;;;;4952824;28;20234;-79
2022/09/30 06:54:19;;;;;;;16.50;3.65;;;20.50;88.00;;;;;;4949026;28;20639;-78
2022/09/30 06:56:48;;;;;;;8.27;3.45;;;20.60;88.10;;;;;;4949576;28;20195;-79
2022/09/30 06:59:16;;;;;;;7.40;3.13;;;20.60;88.00;;;;;;4946105;28;20979;-80
2022/09/30 07:01:45;;;;;;;11.90;3.27;;;20.70;87.90;;;;;;4949198;28;20229;-79
2022/09/30 07:04:15;;;;;;;9.13;2.78;;;20.70;87.80;;;;;;4955840;28;20285;-81
2022/09/30 07:06:44;;;;;;;7.68;3.25;;;20.80;87.70;;;;;;4949486;28;20246;-79
2022/09/30 07:09:13;;;;;;;7.07;2.90;;;20.90;87.70;;;;;;4943218;28;20294;-79
2022/09/30 07:11:42;;;;;;;6.78;2.65;;;21.00;87.60;;;;;;4939518;28;21020;-78
2022/09/30 07:14:12;;;;;;;6.63;2.58;;;21.00;87.50;;;;;;4950523;28;20581;-80
2022/09/30 07:16:40;;;;;;;7.53;2.92;;;21.10;87.40;;;;;;4952913;28;20293;-80
2022/09/30 07:19:10;;;;;;;10.15;2.35;;;21.20;87.20;;;;;;4950439;28;20700;-79
2022/09/30 07:21:38;;;;;;;4.03;2.33;;;21.30;87.00;;;;;;4937841;28;20284;-78
2022/09/30 07:24:08;;;;;;;6.72;2.17;;;21.30;86.70;;;;;;4951746;28;20293;-78
2022/09/30 07:26:39;;;;;;;6.85;2.22;;;21.40;86.70;;;;;;4948405;28;20596;-77
2022/09/30 07:29:07;;;;;;;5.55;2.33;;;21.50;86.50;;;;;;4940517;28;20564;-77
2022/09/30 07:31:35;;;;;;;4.57;1.80;;;21.50;86.30;;;;;;4942205;28;20252;-77
2022/09/30 07:34:06;;;;;;;6.75;2.35;;;21.60;86.20;;;;;;4949516;28;20281;-75
2022/09/30 07:36:36;;;;;;;3.60;1.90;;;21.70;86.10;;;;;;4962521;28;20245;-77
2022/09/30 07:39:07;;;;;;;4.60;1.80;;;21.80;86.10;;;;;;4952176;28;20294;-77
2022/09/30 07:41:39;;;;;;;6.78;1.98;;;21.90;85.90;;;;;;4951910;28;20593;-77
2022/09/30 07:44:13;;;;;;;10.95;2.35;;;22.00;86.60;;;;;;4954874;28;20205;-77
2022/09/30 07:46:42;;;;;;;5.00;2.17;;;22.00;85.70;;;;;;4946784;28;20194;-76
2022/09/30 07:49:14;;;;;;;8.57;2.78;;;22.10;85.60;;;;;;4951259;28;20254;-77
2022/09/30 07:51:44;;;;;;;8.05;2.42;;;22.20;85.10;;;;;;4949779;28;20573;-76
2022/09/30 07:54:15;;;;;;;7.18;2.83;;;22.30;84.70;;;;;;4951613;28;20206;-77
2022/09/30 07:56:46;;;;;;;4.25;2.20;;;22.40;84.40;;;;;;4945294;28;20644;-77
2022/09/30 07:59:36;;;;;;;9.10;2.25;;;22.50;84.30;;;;;;4945855;28;20198;-77
2022/09/30 08:02:07;;;;;;;8.32;2.70;;;22.60;83.90;;;;;;4943510;28;20964;-76
2022/09/30 08:04:36;;;;;;;5.97;2.63;;;22.60;83.80;;;;;;4944591;28;20194;-75
2022/09/30 08:07:10;;;;;;;7.13;2.30;;;22.70;83.40;;;;;;4949238;28;20194;-77
2022/09/30 08:09:39;;;;;;;9.27;1.83;;;22.80;83.50;;;;;;4948906;28;20265;-77
2022/09/30 08:12:09;;;;;;;4.20;1.90;;;22.90;82.70;;;;;;4951020;28;20202;-77
2022/09/30 08:14:37;;;;;;;9.30;2.10;;;22.90;82.30;;;;;;4956429;28;20225;-77
2022/09/30 08:17:05;;;;;;;7.05;2.20;;;23.00;82.00;;;;;;4950072;28;21006;-76
2022/09/30 08:19:34;;;;;;;4.97;2.00;;;23.10;81.70;;;;;;4946962;28;20226;-77
2022/09/30 08:22:02;;;;;;;7.75;2.10;;;23.20;81.40;;;;;;4948083;28;20240;-77
2022/09/30 08:24:31;;;;;;;8.77;2.10;;;23.20;81.10;;;;;;4951528;28;20232;-78
2022/09/30 08:26:59;;;;;;;5.45;1.95;;;23.30;81.10;;;;;;4949353;28;20280;-77
2022/09/30 08:29:29;;;;;;;6.60;2.05;;;23.40;80.70;;;;;;4945301;28;20697;-77
2022/09/30 08:32:18;;;;;;;9.70;2.35;;;23.50;79.90;;;;;;4951843;28;20285;-77
2022/09/30 08:34:46;;;;;;;6.90;2.10;;;23.50;79.00;;;;;;4943629;28;20214;-77
2022/09/30 08:37:14;;;;;;;7.13;2.70;;;23.60;79.00;;;;;;4953838;28;20210;-73
2022/09/30 08:39:43;;;;;;;4.53;1.80;;;23.70;78.00;;;;;;4946974;28;20273;-80
2022/09/30 08:42:25;;;;;;;9.43;2.15;;;23.70;76.10;;;;;;4952214;28;20230;-78
2022/09/30 08:45:24;;;;;;;5.75;2.33;;;23.80;75.80;;;;;;4950612;28;20197;-77
2022/09/30 08:48:02;;;;;;;6.63;2.17;;;23.90;76.40;;;;;;4955606;28;20288;-78
2022/09/30 08:50:39;;;;;;;6.95;2.40;;;24.00;76.30;;;;;;4952426;28;20204;-77
2022/09/30 08:53:12;;;;;;;5.68;2.10;;;24.10;76.30;;;;;;4956997;28;21570;-76
2022/09/30 08:55:43;;;;;;;5.95;1.67;;;24.10;74.30;;;;;;4946334;28;20773;-78
2022/09/30 08:58:21;;;;;;;11.80;2.10;;;24.10;73.30;;;;;;4951558;28;20202;-76
2022/09/30 09:00:59;;;;;;;3.63;1.50;;;24.30;74.10;;;;;;4953412;28;20197;-76
2022/09/30 09:03:32;;;;;;;4.07;1.55;;;24.30;74.30;;;;;;4944658;29;20224;-76
2022/09/30 09:06:18;;;;;;;4.60;1.23;;;24.40;74.00;;;;;;4951246;28;20198;-75
2022/09/30 09:09:04;;;;;;;8.00;1.60;;;24.50;72.70;;;;;;4954817;28;20460;-74
2022/09/30 09:11:49;;;;;;;5.10;1.23;;;24.60;72.50;;;;;;4942957;28;20499;-79
2022/09/30 09:14:29;;;;;;;5.53;1.15;;;24.70;72.80;;;;;;4947833;28;20249;-77
2022/09/30 09:17:11;;;;;;;4.28;1.83;;;24.70;72.50;;;;;;4949832;28;20230;-76
2022/09/30 09:19:52;;;;;;;4.43;1.40;;;24.80;72.00;;;;;;4950130;28;20199;-76
2022/09/30 09:22:20;;;;;;;4.03;1.00;;;24.90;71.60;;;;;;4955718;28;20565;-76
2022/09/30 09:24:54;;;;;;;4.68;1.40;;;24.90;70.70;;;;;;4950156;28;20203;-76
2022/09/30 09:27:26;;;;;;;4.07;1.20;;;25.00;70.80;;;;;;4956819;28;20293;-77
2022/09/30 09:30:05;;;;;;;6.32;0.95;;;25.10;70.20;;;;;;4955103;28;20233;-75
2022/09/30 09:32:35;;;;;;;3.38;1.77;;;25.10;68.90;;;;;;4945670;28;20294;-76
2022/09/30 09:35:14;;;;;;;2.17;1.35;;;25.20;69.40;;;;;;4950444;28;20215;-76
2022/09/30 09:40:56;;;;;;;5.30;1.30;;;25.40;68.60;;;;;;4952642;28;20201;-74
2022/09/30 09:43:42;;;;;;;6.43;1.80;;;25.40;68.20;;;;;;4951327;28;20621;-73
2022/09/30 09:46:18;;;;;;;7.07;1.40;;;25.50;68.50;;;;;;4946717;28;20198;-78
2022/09/30 09:48:47;;;;;;;5.75;1.23;;;25.60;69.00;;;;;;4952369;28;20190;-76
2022/09/30 09:51:24;;;;;;;2.63;1.25;;;25.60;68.30;;;;;;4947011;28;20664;-77
2022/09/30 09:53:56;;;;;;;7.00;1.42;;;25.60;66.90;;;;;;4951649;28;20194;-77
2022/09/30 09:56:28;;;;;;;4.93;1.50;;;25.70;67.30;;;;;;4962204;28;20199;-74
2022/09/30 09:59:14;;;;;;;4.50;1.30;;;25.80;67.20;;;;;;4952680;28;20205;-76
2022/09/30 10:01:49;;;;;;;2.90;1.35;;;25.90;67.10;;;;;;4953445;28;20201;-77
2022/09/30 10:04:23;;;;;;;9.25;1.27;;;25.90;66.10;;;;;;4952481;28;20218;-77
2022/09/30 10:06:54;;;;;;;2.75;1.30;;;26.00;66.80;;;;;;4945264;28;20230;-78
2022/09/30 10:09:25;;;;;;;3.63;1.58;;;26.00;67.10;;;;;;4948866;28;20233;-77
2022/09/30 10:12:27;;;;;;;2.42;1.17;;;26.10;66.80;;;;;;4949783;28;20194;-75
2022/09/30 10:15:02;;;;;;;2.15;1.10;;;26.20;65.30;;;;;;4956133;28;20198;-78
2022/09/30 10:17:33;;;;;;;2.90;1.33;;;26.20;65.10;;;;;;4954151;28;20186;-78
2022/09/30 10:20:07;;;;;;;3.55;1.33;;;26.20;64.40;;;;;;4957226;28;20330;-77
2022/09/30 10:22:36;;;;;;;4.13;1.25;;;26.30;65.20;;;;;;4952431;28;20190;-77
2022/09/30 10:25:25;;;;;;;1.77;1.33;;;26.40;65.50;;;;;;4952013;28;20739;-78
2022/09/30 10:27:56;;;;;;;3.20;1.20;;;26.40;63.30;;;;;;4948781;28;20194;-80
2022/09/30 10:30:49;;;;;;;4.13;1.20;;;26.50;63.60;;;;;;4954350;28;20217;-77
2022/09/30 10:33:27;;;;;;;4.43;1.40;;;26.50;64.00;;;;;;4949489;28;20268;-80
2022/09/30 10:36:02;;;;;;;4.93;1.50;;;26.60;64.10;;;;;;4962892;28;20190;-79
2022/09/30 10:38:33;;;;;;;5.93;1.80;;;26.60;64.10;;;;;;4961402;28;20569;-79
2022/09/30 10:41:04;;;;;;;3.80;1.80;;;26.70;63.80;;;;;;4952047;28;20187;-77
2022/09/30 10:43:38;;;;;;;2.25;1.27;;;26.80;63.90;;;;;;4953831;28;20798;-78
2022/09/30 10:46:08;;;;;;;2.00;1.30;;;26.80;63.50;;;;;;4947001;29;20210;-76
2022/09/30 10:48:56;;;;;;;4.72;1.48;;;26.90;63.60;;;;;;4944148;28;20214;-77
2022/09/30 10:51:35;;;;;;;9.30;2.08;;;26.90;62.90;;;;;;4949184;28;21975;-77
2022/09/30 10:54:04;;;;;;;7.63;1.63;;;27.00;63.10;;;;;;4940804;28;20202;-77
2022/09/30 10:56:41;;;;;;;2.83;1.67;;;27.00;63.50;;;;;;4951616;28;20222;-78
2022/09/30 10:59:31;;;;;;;8.75;1.40;;;27.00;63.30;;;;;;4943397;29;20651;-79
2022/09/30 11:02:16;;;;;;;5.28;1.42;;;27.10;62.30;;;;;;4947075;28;20612;-78
2022/09/30 11:04:50;;;;;;;1.60;1.08;;;27.20;62.10;;;;;;4948366;28;20253;-77
2022/09/30 11:07:26;;;;;;;3.05;1.25;;;27.20;62.30;;;;;;4944306;28;20275;-82
2022/09/30 11:10:00;;;;;;;2.20;1.35;;;27.20;60.60;;;;;;4946283;28;20602;-77
2022/09/30 11:12:37;;;;;;;3.17;1.63;;;27.30;61.10;;;;;;4948499;28;20197;-77
2022/09/30 11:15:13;;;;;;;2.65;1.33;;;27.30;59.70;;;;;;4949224;28;20249;-79
2022/09/30 11:17:50;;;;;;;3.25;1.27;;;27.40;59.80;;;;;;4945583;28;20566;-78
2022/09/30 11:20:22;;;;;;;3.47;1.42;;;27.50;60.20;;;;;;4947472;28;20194;-80
2022/09/30 11:23:01;;;;;;;6.38;1.45;;;27.50;60.30;;;;;;4947294;28;20488;-78
2022/09/30 11:25:37;;;;;;;3.90;1.75;;;27.50;59.70;;;;;;4951641;28;20265;-78
2022/09/30 11:28:26;;;;;;;2.95;1.05;;;27.60;60.00;;;;;;4957039;28;20217;-79
2022/09/30 11:31:04;;;;;;;6.18;1.77;;;27.70;60.20;;;;;;4945879;28;20217;-80
2022/09/30 11:33:50;;;;;;;3.35;1.63;;;27.70;58.80;;;;;;4950096;28;20197;-80
2022/09/30 11:36:26;;;;;;;2.47;1.48;;;27.70;58.30;;;;;;4948949;28;20260;-77
2022/09/30 11:39:21;;;;;;;3.83;1.65;;;27.80;58.10;;;;;;4951612;28;20191;-80
2022/09/30 11:41:56;;;;;;;6.65;1.55;;;27.80;57.80;;;;;;4938591;28;20245;-78
2022/09/30 11:44:31;;;;;;;4.85;1.50;;;27.90;58.60;;;;;;4944469;28;20213;-77
2022/09/30 11:47:28;;;;;;;5.50;1.27;;;28.00;57.60;;;;;;4944833;28;20195;-77
2022/09/30 11:50:31;;;;;;;5.80;1.52;;;28.10;57.60;;;;;;4945482;28;20242;-79
2022/09/30 11:53:08;;;;;;;4.03;1.13;;;28.10;57.00;;;;;;4941823;29;20651;-77
2022/09/30 11:56:01;;;;;;;3.25;1.50;;;28.10;56.90;;;;;;4943453;28;20199;-77
2022/09/30 11:58:36;;;;;;;4.88;1.42;;;28.10;56.80;;;;;;4932836;28;20864;-77
2022/09/30 12:01:22;;;;;;;3.53;1.75;;;28.20;57.30;;;;;;4949962;28;20669;-77
2022/09/30 12:04:00;;;;;;;4.47;1.52;;;28.30;56.70;;;;;;4950603;28;20224;-78
2022/09/30 12:06:33;;;;;;;4.13;1.67;;;28.30;56.50;;;;;;4942784;28;20660;-77
2022/09/30 12:09:09;;;;;;;2.80;1.50;;;28.30;56.30;;;;;;4955696;28;20245;-78
2022/09/30 12:11:48;;;;;;;3.25;1.40;;;28.40;56.20;;;;;;4950491;28;20199;-78
2022/09/30 12:14:23;;;;;;;3.88;1.40;;;28.40;56.50;;;;;;4940343;28;20199;-78
2022/09/30 12:16:51;;;;;;;6.13;2.30;;;28.50;55.60;;;;;;4954728;28;20581;-77
2022/09/30 12:19:25;;;;;;;3.92;1.67;;;28.50;55.10;;;;;;4951651;28;20675;-78
2022/09/30 12:21:59;;;;;;;4.80;2.42;;;28.60;55.20;;;;;;4942403;28;20201;-78
2022/09/30 12:24:36;;;;;;;3.17;1.58;;;28.60;55.20;;;;;;4942999;28;20254;-78
2022/09/30 12:27:16;;;;;;;3.55;2.10;;;28.70;54.50;;;;;;4945441;28;20679;-79
2022/09/30 12:33:22;;;;;;;7.78;2.38;;;28.80;54.40;;;;;;4909679;29;20305;-78
2022/09/30 12:36:18;;;;;;;2.72;1.35;;;28.80;53.40;;;;;;4901953;29;20228;-76
2022/09/30 12:39:05;;;;;;;2.38;1.13;;;28.80;53.00;;;;;;4942282;28;20199;-77
2022/09/30 12:41:49;;;;;;;4.85;1.75;;;28.90;53.70;;;;;;4944237;28;20198;-78
2022/09/30 12:44:54;;;;;;;2.95;1.70;;;28.90;54.00;;;;;;4951909;28;20217;-78
2022/09/30 12:47:34;;;;;;;2.90;1.10;;;29.00;53.30;;;;;;4946010;28;20221;-76
2022/09/30 12:50:08;;;;;;;1.73;1.20;;;29.00;53.60;;;;;;4946136;28;20190;-77
2022/09/30 12:52:37;;;;;;;3.60;1.50;;;29.10;54.20;;;;;;4951301;28;20199;-76
2022/09/30 12:55:09;;;;;;;3.55;1.15;;;29.10;53.70;;;;;;4944639;28;20218;-75
2022/09/30 12:57:41;;;;;;;3.85;1.30;;;29.10;53.50;;;;;;4948415;28;20227;-77
2022/09/30 13:00:16;;;;;;;2.75;1.50;;;29.20;53.60;;;;;;4953475;28;20261;-76
2022/09/30 13:02:49;;;;;;;2.50;1.30;;;29.20;52.80;;;;;;4940370;28;20250;-76
2022/09/30 13:05:58;;;;;;;3.40;1.40;;;29.20;52.40;;;;;;4942530;28;21928;-75
2022/09/30 13:08:42;;;;;;;2.70;0.93;;;29.20;52.20;;;;;;4947867;28;20573;-76
2022/09/30 13:11:33;;;;;;;8.82;1.55;;;29.30;52.50;;;;;;4961540;28;20230;-79
2022/09/30 13:14:14;;;;;;;4.80;1.30;;;29.30;52.30;;;;;;4958814;28;20674;-77
2022/09/30 13:17:20;;;;;;;2.67;1.35;;;29.40;52.60;;;;;;4951426;28;20238;-77
2022/09/30 13:19:51;;;;;;;4.35;1.67;;;29.70;54.00;;;;;;4947850;28;20214;-77
2022/09/30 13:22:42;;;;;;;1.40;1.00;;;30.10;54.10;;;;;;4952363;28;20202;-78
2022/09/30 13:25:15;;;;;;;4.38;1.50;;;30.40;53.00;;;;;;4944383;29;20225;-80
2022/09/30 13:27:46;;;;;;;2.15;1.17;;;30.30;51.30;;;;;;4964686;28;20667;-79
2022/09/30 13:30:36;;;;;;;3.38;1.33;;;30.20;51.00;;;;;;4947183;28;20214;-79
2022/09/30 13:33:43;;;;;;;3.22;1.50;;;30.30;51.50;;;;;;4947786;28;20230;-80